Time;durP1;ratioP1;P1;durP2;ratioP2;P2;SDS_P1;SDS_P2;PMS_P1;PMS_P2;Temp;Humidity;BMP_temperature;BMP_pressure;BME280_temperature;BME280_humidity;BME280_pressure;Samples;Min_cycle;Max_cycle;Signal;HPM_P1;HPM_P2
2022/09/29 00:00:48;;;;;;;0.00;0.00;;;4.20;99.90;;;;;;5072748;28;20051;-79
2022/09/29 00:03:14;;;;;;;0.17;0.17;;;4.20;99.90;;;;;;5072892;28;20040;-79
2022/09/29 00:05:52;;;;;;;0.22;0.22;;;4.20;99.90;;;;;;5072316;28;20113;-79
2022/09/29 00:08:18;;;;;;;0.00;0.00;;;4.20;99.90;;;;;;5066508;28;20338;-79
2022/09/29 00:10:45;;;;;;;1.35;0.80;;;4.10;99.90;;;;;;5068229;28;20092;-79
2022/09/29 00:13:12;;;;;;;0.00;0.00;;;4.10;99.90;;;;;;5052046;28;20045;-78
2022/09/29 00:15:38;;;;;;;0.45;0.20;;;4.10;99.90;;;;;;5065014;28;20068;-79
2022/09/29 00:18:04;;;;;;;0.15;0.15;;;4.10;99.90;;;;;;5071016;28;20052;-79
2022/09/29 00:20:30;;;;;;;0.00;0.00;;;4.00;99.90;;;;;;5072925;28;20045;-79
2022/09/29 00:22:56;;;;;;;0.10;0.10;;;4.10;99.90;;;;;;5072167;28;20486;-79
2022/09/29 00:25:21;;;;;;;0.32;0.32;;;4.00;99.90;;;;;;5059791;28;20079;-79
2022/09/29 00:27:47;;;;;;;0.00;0.00;;;4.00;99.90;;;;;;5059967;28;20119;-78
2022/09/29 00:30:13;;;;;;;0.00;0.00;;;4.00;99.90;;;;;;5071552;28;20044;-80
2022/09/29 00:32:39;;;;;;;0.00;0.00;;;4.00;99.90;;;;;;5060886;28;20069;-80
2022/09/29 00:35:07;;;;;;;0.00;0.00;;;3.90;99.90;;;;;;5050474;28;20492;-79
2022/09/29 00:37:33;;;;;;;0.00;0.00;;;3.90;99.90;;;;;;5056188;28;20040;-80
2022/09/29 00:40:00;;;;;;;0.00;0.00;;;3.90;99.90;;;;;;5071469;28;20047;-79
2022/09/29 00:42:26;;;;;;;0.00;0.00;;;4.00;99.90;;;;;;5071054;28;20281;-79
2022/09/29 00:45:11;;;;;;;0.00;0.00;;;4.00;99.90;;;;;;5060936;28;20116;-79
2022/09/29 00:47:41;;;;;;;0.10;0.10;;;4.00;99.90;;;;;;5055410;28;20047;-79
2022/09/29 00:50:16;;;;;;;0.30;0.30;;;3.90;99.90;;;;;;5069747;28;20121;-79
2022/09/29 00:52:47;;;;;;;0.00;0.00;;;3.90;99.90;;;;;;5069565;28;20055;-79
2022/09/29 00:55:30;;;;;;;0.00;0.00;;;3.90;99.90;;;;;;5059616;28;20641;-79
2022/09/29 00:58:06;;;;;;;0.45;0.45;;;3.90;99.90;;;;;;5050472;28;20175;-79
2022/09/29 01:00:32;;;;;;;0.38;0.30;;;3.90;99.90;;;;;;5050919;28;20518;-79
2022/09/29 01:03:12;;;;;;;0.00;0.00;;;3.90;99.90;;;;;;5050360;28;20055;-79
2022/09/29 01:05:50;;;;;;;0.10;0.10;;;3.80;99.90;;;;;;5063081;28;20041;-79
2022/09/29 01:08:23;;;;;;;0.00;0.00;;;3.90;99.90;;;;;;5060973;28;20060;-79
2022/09/29 01:10:51;;;;;;;0.10;0.10;;;3.90;99.90;;;;;;5051032;28;20084;-78
2022/09/29 01:13:18;;;;;;;0.08;0.05;;;3.90;99.90;;;;;;5068312;28;20403;-79
2022/09/29 01:15:43;;;;;;;0.00;0.00;;;3.90;99.90;;;;;;5070828;28;20048;-79
2022/09/29 01:18:09;;;;;;;0.10;0.10;;;3.90;99.90;;;;;;5070670;28;20089;-79
2022/09/29 01:20:48;;;;;;;0.10;0.10;;;4.00;99.90;;;;;;5071187;28;20123;-79
2022/09/29 01:24:04;;;;;;;0.17;0.17;;;3.90;99.90;;;;;;5071049;28;20072;-79
2022/09/29 01:26:54;;;;;;;0.08;0.08;;;3.90;99.90;;;;;;5051848;28;20106;-79
2022/09/29 01:29:19;;;;;;;0.03;0.03;;;3.90;99.90;;;;;;5066907;28;20048;-79
2022/09/29 01:31:48;;;;;;;0.00;0.00;;;3.90;99.90;;;;;;5069511;28;20055;-80
2022/09/29 01:34:41;;;;;;;0.00;0.00;;;3.90;99.90;;;;;;5070099;28;20056;-80
2022/09/29 01:37:27;;;;;;;0.20;0.20;;;3.90;99.90;;;;;;5068482;28;20055;-80
2022/09/29 01:40:03;;;;;;;0.17;0.17;;;3.90;99.90;;;;;;5070966;28;20051;-79
2022/09/29 01:42:35;;;;;;;0.20;0.20;;;3.90;99.90;;;;;;5070697;28;20611;-79
2022/09/29 01:45:14;;;;;;;0.15;0.15;;;3.90;99.90;;;;;;5070202;28;20062;-79
2022/09/29 01:47:44;;;;;;;0.05;0.05;;;3.90;99.90;;;;;;5070002;28;20040;-79
2022/09/29 01:50:18;;;;;;;0.00;0.00;;;4.00;99.90;;;;;;5068189;28;20223;-79
2022/09/29 01:52:48;;;;;;;0.30;0.30;;;4.00;99.90;;;;;;5068969;28;20056;-79
2022/09/29 01:55:20;;;;;;;0.22;0.20;;;4.00;99.90;;;;;;5062212;28;20045;-79
2022/09/29 01:57:51;;;;;;;0.22;0.20;;;4.00;99.90;;;;;;5048085;28;20378;-79
2022/09/29 02:00:18;;;;;;;0.10;0.10;;;4.30;99.90;;;;;;5047643;28;20057;-79
2022/09/29 02:03:08;;;;;;;0.98;0.70;;;3.90;99.90;;;;;;5047878;28;20045;-79
2022/09/29 02:05:45;;;;;;;0.05;0.05;;;3.90;99.90;;;;;;5048102;28;20040;-80
2022/09/29 02:08:16;;;;;;;0.00;0.00;;;3.90;99.90;;;;;;5061901;28;20376;-79
2022/09/29 02:11:21;;;;;;;0.00;0.00;;;3.80;99.90;;;;;;5067140;28;20775;-79
2022/09/29 02:14:22;;;;;;;0.00;0.00;;;3.80;99.90;;;;;;5024400;28;20045;-79
2022/09/29 02:16:53;;;;;;;0.00;0.00;;;3.80;99.90;;;;;;4969332;28;20069;-79
2022/09/29 02:19:24;;;;;;;0.40;0.40;;;3.80;99.90;;;;;;5056978;28;20053;-78
2022/09/29 02:21:53;;;;;;;0.00;0.00;;;3.80;99.90;;;;;;5066278;28;20048;-79
2022/09/29 02:24:29;;;;;;;0.70;0.47;;;3.80;99.90;;;;;;5066652;28;20511;-79
2022/09/29 02:26:55;;;;;;;0.05;0.05;;;3.80;99.90;;;;;;5049897;28;20053;-80
2022/09/29 02:29:21;;;;;;;0.00;0.00;;;3.80;99.90;;;;;;5068938;28;20052;-79
2022/09/29 02:31:47;;;;;;;0.00;0.00;;;3.70;99.90;;;;;;5068122;28;20048;-78
2022/09/29 02:34:17;;;;;;;0.00;0.00;;;3.70;99.90;;;;;;5067327;28;20530;-79
2022/09/29 02:37:11;;;;;;;0.00;0.00;;;3.70;99.90;;;;;;5050062;28;20056;-79
2022/09/29 02:40:15;;;;;;;0.30;0.30;;;3.70;99.90;;;;;;5066270;28;20063;-79
2022/09/29 02:43:15;;;;;;;0.00;0.00;;;3.80;99.90;;;;;;5060412;28;20142;-79
2022/09/29 02:45:55;;;;;;;0.00;0.00;;;3.80;99.90;;;;;;5042844;28;20124;-79
2022/09/29 02:48:42;;;;;;;0.00;0.00;;;3.80;99.90;;;;;;5060199;28;20511;-78
2022/09/29 02:51:23;;;;;;;0.08;0.08;;;3.80;99.90;;;;;;5066976;28;20049;-79
2022/09/29 02:54:00;;;;;;;0.00;0.00;;;3.70;99.90;;;;;;5067548;28;20052;-79
2022/09/29 02:56:47;;;;;;;0.70;0.70;;;3.70;99.90;;;;;;5057442;28;20055;-79
2022/09/29 02:59:26;;;;;;;1.27;0.52;;;3.60;99.90;;;;;;5042635;28;20057;-78
2022/09/29 03:01:55;;;;;;;0.05;0.05;;;3.60;99.90;;;;;;5027192;28;20049;-78
2022/09/29 03:04:23;;;;;;;0.43;0.35;;;3.60;99.90;;;;;;5026549;28;20128;-79
2022/09/29 03:06:50;;;;;;;0.13;0.13;;;3.60;99.90;;;;;;5053002;28;20052;-79
2022/09/29 03:09:17;;;;;;;0.05;0.05;;;3.60;99.90;;;;;;5027062;28;20103;-79
2022/09/29 03:11:42;;;;;;;0.40;0.30;;;3.50;99.90;;;;;;5027598;28;20053;-78
2022/09/29 03:14:08;;;;;;;0.10;0.10;;;3.50;99.90;;;;;;5027410;28;20045;-79
2022/09/29 03:16:34;;;;;;;1.55;0.75;;;3.50;99.90;;;;;;5046326;28;20071;-79
2022/09/29 03:19:00;;;;;;;0.20;0.20;;;3.50;99.90;;;;;;5046248;28;20045;-79
2022/09/29 03:21:26;;;;;;;0.00;0.00;;;3.50;99.90;;;;;;5048313;28;20052;-79
2022/09/29 03:23:52;;;;;;;0.38;0.38;;;3.50;99.90;;;;;;5049530;28;20052;-79
2022/09/29 03:26:18;;;;;;;0.40;0.25;;;3.50;99.90;;;;;;5058029;28;20044;-79
2022/09/29 03:28:44;;;;;;;0.00;0.00;;;3.50;99.90;;;;;;5050110;28;20053;-79
2022/09/29 03:31:10;;;;;;;0.22;0.22;;;3.40;99.90;;;;;;5047321;28;20047;-79
2022/09/29 03:33:38;;;;;;;0.00;0.00;;;3.40;99.90;;;;;;5049926;28;20399;-79
2022/09/29 03:36:13;;;;;;;0.10;0.10;;;3.40;99.90;;;;;;5068008;28;20071;-78
2022/09/29 03:38:39;;;;;;;0.00;0.00;;;3.40;99.90;;;;;;5053338;28;20059;-79
2022/09/29 03:41:06;;;;;;;0.13;0.13;;;3.40;99.90;;;;;;5049804;28;20044;-78
2022/09/29 03:43:32;;;;;;;0.00;0.00;;;3.50;99.90;;;;;;5050028;28;20041;-79
2022/09/29 03:45:58;;;;;;;0.15;0.15;;;3.50;99.90;;;;;;5049497;28;20183;-79
2022/09/29 03:48:25;;;;;;;0.15;0.15;;;3.40;99.90;;;;;;5050334;28;20100;-79
2022/09/29 03:50:52;;;;;;;0.00;0.00;;;3.40;99.90;;;;;;5050678;28;20052;-79
2022/09/29 03:53:18;;;;;;;0.10;0.10;;;3.40;99.90;;;;;;5050675;28;20055;-79
2022/09/29 03:55:48;;;;;;;0.00;0.00;;;3.40;99.90;;;;;;5050932;28;20045;-80
2022/09/29 03:58:14;;;;;;;1.65;0.55;;;3.30;99.90;;;;;;5049066;28;20080;-78
2022/09/29 04:00:39;;;;;;;0.00;0.00;;;3.20;99.90;;;;;;5049804;28;20076;-80
2022/09/29 04:03:05;;;;;;;0.10;0.10;;;3.20;99.90;;;;;;5049804;28;20064;-78
2022/09/29 04:05:33;;;;;;;0.00;0.00;;;3.10;99.90;;;;;;5049486;28;20146;-78
2022/09/29 04:07:59;;;;;;;0.00;0.00;;;3.10;99.90;;;;;;5052846;28;20574;-78
2022/09/29 04:10:24;;;;;;;0.10;0.10;;;3.10;99.90;;;;;;5049008;28;20138;-79
2022/09/29 04:12:50;;;;;;;0.00;0.00;;;3.00;99.90;;;;;;5049078;28;20057;-79
2022/09/29 04:15:16;;;;;;;0.00;0.00;;;3.00;99.90;;;;;;5070152;28;20076;-80
2022/09/29 04:17:41;;;;;;;0.10;0.10;;;3.00;99.90;;;;;;5055033;28;20037;-78
2022/09/29 04:20:07;;;;;;;0.03;0.03;;;3.00;99.90;;;;;;5051611;28;20091;-78
2022/09/29 04:22:33;;;;;;;0.00;0.00;;;3.00;99.90;;;;;;5051235;28;20041;-79
2022/09/29 04:24:59;;;;;;;0.00;0.00;;;2.90;99.90;;;;;;5050577;28;20053;-77
2022/09/29 04:27:25;;;;;;;0.00;0.00;;;2.90;99.90;;;;;;5063063;28;20104;-77
2022/09/29 04:29:50;;;;;;;0.08;0.08;;;2.90;99.90;;;;;;5070934;28;20109;-77
2022/09/29 04:32:16;;;;;;;0.08;0.08;;;3.00;99.90;;;;;;5069521;28;20079;-76
2022/09/29 04:34:42;;;;;;;0.00;0.00;;;3.00;99.90;;;;;;5065061;28;20048;-77
2022/09/29 04:37:11;;;;;;;0.32;0.32;;;3.00;99.90;;;;;;5065026;28;20060;-77
2022/09/29 04:39:37;;;;;;;0.25;0.25;;;3.00;99.90;;;;;;5053958;28;20041;-76
2022/09/29 04:42:03;;;;;;;3.30;1.42;;;3.00;99.90;;;;;;5045240;28;20554;-77
2022/09/29 04:44:28;;;;;;;1.05;0.95;;;3.10;99.90;;;;;;5044850;28;20128;-76
2022/09/29 04:46:54;;;;;;;0.10;0.10;;;3.10;99.90;;;;;;5044215;28;20127;-77
2022/09/29 04:49:20;;;;;;;0.20;0.20;;;3.20;99.90;;;;;;5044387;28;20487;-76
2022/09/29 04:51:52;;;;;;;1.75;0.55;;;3.30;99.90;;;;;;5042981;28;20080;-77
2022/09/29 04:54:18;;;;;;;0.30;0.30;;;3.30;99.90;;;;;;5042587;28;20084;-78
2022/09/29 04:56:43;;;;;;;0.28;0.28;;;3.30;99.90;;;;;;5042538;28;20149;-77
2022/09/29 04:59:09;;;;;;;0.10;0.10;;;3.30;99.90;;;;;;5042871;28;20055;-77
2022/09/29 05:01:35;;;;;;;0.10;0.10;;;3.30;99.90;;;;;;5042557;28;20190;-78
2022/09/29 05:04:01;;;;;;;0.60;0.60;;;3.30;99.90;;;;;;5041242;28;20135;-78
2022/09/29 05:06:27;;;;;;;0.85;0.63;;;3.30;99.90;;;;;;5042761;28;20507;-77
2022/09/29 05:08:52;;;;;;;0.10;0.10;;;3.30;99.90;;;;;;5042307;28;20041;-77
2022/09/29 05:11:18;;;;;;;1.35;0.80;;;3.30;99.90;;;;;;5059234;28;20048;-77
2022/09/29 05:13:49;;;;;;;0.00;0.00;;;3.20;99.90;;;;;;5062562;28;20403;-76
2022/09/29 05:16:15;;;;;;;0.00;0.00;;;3.10;99.90;;;;;;5055745;28;20163;-76
2022/09/29 05:18:40;;;;;;;3.30;0.45;;;3.10;99.90;;;;;;5064778;28;20111;-78
2022/09/29 05:21:07;;;;;;;0.00;0.00;;;3.00;99.90;;;;;;5051294;28;20570;-78
2022/09/29 05:23:33;;;;;;;0.00;0.00;;;3.00;99.90;;;;;;5048550;28;20479;-77
2022/09/29 05:26:05;;;;;;;0.00;0.00;;;3.00;99.90;;;;;;5046272;28;20411;-79
2022/09/29 05:28:31;;;;;;;0.00;0.00;;;3.00;99.90;;;;;;5062409;28;20467;-77
2022/09/29 05:31:02;;;;;;;0.00;0.00;;;3.20;99.90;;;;;;5064310;28;20052;-77
2022/09/29 05:33:27;;;;;;;0.00;0.00;;;2.90;99.90;;;;;;5064237;28;20044;-77
2022/09/29 05:35:54;;;;;;;0.00;0.00;;;2.90;99.90;;;;;;5063107;28;20058;-78
2022/09/29 05:38:19;;;;;;;0.20;0.20;;;2.90;99.90;;;;;;5062721;28;20094;-77
2022/09/29 05:40:45;;;;;;;0.10;0.10;;;2.90;99.90;;;;;;5063668;28;20542;-77
2022/09/29 05:43:11;;;;;;;0.13;0.13;;;2.90;99.90;;;;;;5064127;28;20035;-77
2022/09/29 05:45:36;;;;;;;0.00;0.00;;;2.90;99.90;;;;;;5064135;28;20044;-77
2022/09/29 05:48:02;;;;;;;0.57;0.55;;;2.90;99.90;;;;;;5064093;28;20068;-77
2022/09/29 05:50:28;;;;;;;0.10;0.10;;;2.90;99.90;;;;;;5064054;28;20048;-77
2022/09/29 05:52:54;;;;;;;0.03;0.03;;;3.20;99.90;;;;;;5064099;28;20048;-77
2022/09/29 05:55:19;;;;;;;0.00;0.00;;;3.00;99.90;;;;;;5063452;28;20048;-77
2022/09/29 05:57:48;;;;;;;0.08;0.08;;;3.00;99.90;;;;;;5064420;28;20053;-77
2022/09/29 06:00:14;;;;;;;0.00;0.00;;;3.10;99.90;;;;;;5064029;28;20131;-77
2022/09/29 06:02:40;;;;;;;0.32;0.32;;;3.20;99.90;;;;;;5061668;28;20087;-76
2022/09/29 06:05:06;;;;;;;0.10;0.10;;;3.20;99.90;;;;;;5063770;28;20076;-77
2022/09/29 06:07:32;;;;;;;0.32;0.32;;;3.30;99.90;;;;;;5063637;28;20044;-78
2022/09/29 06:09:57;;;;;;;0.63;0.63;;;3.40;99.90;;;;;;5045935;28;20052;-76
2022/09/29 06:12:23;;;;;;;0.45;0.45;;;3.40;99.90;;;;;;5063809;28;20048;-77
2022/09/29 06:14:49;;;;;;;0.00;0.00;;;3.60;99.90;;;;;;5063327;28;20075;-77
2022/09/29 06:17:15;;;;;;;0.08;0.08;;;3.70;99.90;;;;;;5063287;28;20044;-77
2022/09/29 06:19:40;;;;;;;0.30;0.30;;;3.80;99.90;;;;;;5063140;28;20067;-77
2022/09/29 06:22:06;;;;;;;0.38;0.38;;;3.90;99.90;;;;;;5062490;28;20128;-77
2022/09/29 06:24:32;;;;;;;0.10;0.10;;;4.00;99.90;;;;;;5063492;28;20091;-77
2022/09/29 06:26:57;;;;;;;1.35;0.38;;;4.10;99.90;;;;;;5063374;28;20533;-77
2022/09/29 06:29:23;;;;;;;0.00;0.00;;;4.20;99.90;;;;;;5063499;28;20041;-77
2022/09/29 06:31:48;;;;;;;0.00;0.00;;;4.30;99.90;;;;;;5063159;28;20734;-77
2022/09/29 06:34:14;;;;;;;0.75;0.73;;;4.40;99.90;;;;;;5062686;28;20053;-77
2022/09/29 06:39:26;;;;;;;0.00;0.00;;;4.50;99.90;;;;;;5063376;28;20056;-77
2022/09/29 06:41:55;;;;;;;0.38;0.38;;;4.50;99.90;;;;;;5056230;28;20144;-77
2022/09/29 06:44:26;;;;;;;0.10;0.10;;;4.50;99.90;;;;;;5043311;28;20053;-79
2022/09/29 06:46:53;;;;;;;0.63;0.63;;;4.60;99.90;;;;;;5043513;28;20099;-78
2022/09/29 06:49:20;;;;;;;0.20;0.20;;;4.60;99.90;;;;;;5044031;28;20056;-78
2022/09/29 06:51:46;;;;;;;0.32;0.25;;;4.60;99.90;;;;;;5045692;28;20055;-77
2022/09/29 06:54:13;;;;;;;0.40;0.15;;;4.70;99.90;;;;;;5044854;28;20602;-78
2022/09/29 06:56:39;;;;;;;0.38;0.38;;;4.70;99.90;;;;;;5048792;28;20442;-78
2022/09/29 06:59:05;;;;;;;0.45;0.45;;;4.70;99.90;;;;;;5048168;28;20059;-79
2022/09/29 07:01:31;;;;;;;0.20;0.17;;;4.70;99.90;;;;;;5042890;28;20132;-78
2022/09/29 07:03:59;;;;;;;0.32;0.32;;;4.80;99.90;;;;;;5048909;28;20116;-78
2022/09/29 07:06:25;;;;;;;0.00;0.00;;;4.90;99.90;;;;;;5048354;28;20032;-78
2022/09/29 07:08:55;;;;;;;0.32;0.32;;;4.90;99.90;;;;;;5049006;28;20122;-78
2022/09/29 07:11:21;;;;;;;0.20;0.20;;;5.00;99.90;;;;;;5048071;28;20136;-78
2022/09/29 07:13:47;;;;;;;0.20;0.20;;;5.00;99.90;;;;;;5046464;28;20562;-79
2022/09/29 07:16:13;;;;;;;0.17;0.17;;;5.00;99.90;;;;;;5047676;28;20080;-78
2022/09/29 07:18:41;;;;;;;3.47;0.75;;;5.00;99.90;;;;;;5047876;28;20087;-78
2022/09/29 07:21:09;;;;;;;0.03;0.03;;;5.10;99.90;;;;;;5048025;28;20044;-77
2022/09/29 07:23:35;;;;;;;0.60;0.60;;;5.10;99.90;;;;;;5053689;28;20106;-78
2022/09/29 07:26:02;;;;;;;0.10;0.10;;;5.20;99.90;;;;;;5038700;28;20132;-78
2022/09/29 07:28:28;;;;;;;0.20;0.20;;;5.20;99.90;;;;;;5056151;28;20044;-78
2022/09/29 07:31:01;;;;;;;0.30;0.30;;;5.20;99.90;;;;;;5035319;28;20063;-78
2022/09/29 07:33:29;;;;;;;0.05;0.05;;;5.30;99.90;;;;;;5055174;28;20169;-78
2022/09/29 07:35:54;;;;;;;1.63;1.50;;;5.30;99.90;;;;;;5057377;28;20625;-77
2022/09/29 07:38:20;;;;;;;0.30;0.30;;;5.40;99.90;;;;;;5061386;28;20041;-78
2022/09/29 07:40:46;;;;;;;0.30;0.30;;;5.50;99.90;;;;;;5067367;28;20091;-78
2022/09/29 07:43:11;;;;;;;0.55;0.55;;;5.60;99.90;;;;;;5067903;28;20110;-80
2022/09/29 07:45:37;;;;;;;0.40;0.40;;;5.80;99.90;;;;;;5067565;28;20041;-79
2022/09/29 07:48:03;;;;;;;1.33;1.15;;;5.90;99.90;;;;;;5059616;28;20640;-80
2022/09/29 07:50:30;;;;;;;0.47;0.47;;;6.10;99.90;;;;;;5067591;28;20048;-79
2022/09/29 07:52:56;;;;;;;0.65;0.65;;;6.20;99.90;;;;;;5067810;28;20044;-79
2022/09/29 07:55:22;;;;;;;0.80;0.80;;;6.30;99.90;;;;;;5068893;28;20051;-80
2022/09/29 07:57:48;;;;;;;0.10;0.10;;;6.40;99.90;;;;;;5069160;28;20052;-79
2022/09/29 08:00:15;;;;;;;0.35;0.35;;;6.50;99.90;;;;;;5050330;28;20040;-78
2022/09/29 08:02:41;;;;;;;0.68;0.47;;;6.60;99.90;;;;;;5068706;28;20048;-78
2022/09/29 08:05:07;;;;;;;0.82;0.40;;;6.80;99.90;;;;;;5067564;28;20043;-79
2022/09/29 08:07:35;;;;;;;0.30;0.30;;;7.00;99.90;;;;;;5067091;28;20041;-78
2022/09/29 08:10:01;;;;;;;1.35;1.25;;;7.10;99.90;;;;;;5067613;28;20564;-78
2022/09/29 08:12:27;;;;;;;0.30;0.30;;;7.20;99.90;;;;;;5067425;28;20530;-78
2022/09/29 08:14:53;;;;;;;0.30;0.30;;;7.20;99.90;;;;;;5068513;28;20117;-79
2022/09/29 08:17:18;;;;;;;0.38;0.38;;;7.40;99.90;;;;;;5067875;28;20052;-78
2022/09/29 08:19:44;;;;;;;2.17;1.75;;;7.50;99.90;;;;;;5067949;28;20090;-77
2022/09/29 08:22:10;;;;;;;0.57;0.57;;;7.60;99.90;;;;;;5068582;28;20087;-78
2022/09/29 08:24:38;;;;;;;0.45;0.30;;;7.80;99.90;;;;;;5068752;28;20512;-78
2022/09/29 08:27:05;;;;;;;0.35;0.35;;;7.90;99.90;;;;;;5068441;28;20406;-78
2022/09/29 08:29:32;;;;;;;1.17;0.80;;;8.00;99.90;;;;;;5069403;28;20048;-79
2022/09/29 08:31:58;;;;;;;0.75;0.70;;;8.10;99.90;;;;;;5069973;28;20423;-77
2022/09/29 08:34:24;;;;;;;2.05;0.68;;;8.20;99.90;;;;;;5069097;28;20049;-78
2022/09/29 08:36:50;;;;;;;0.63;0.52;;;8.20;99.90;;;;;;5040670;28;20045;-77
2022/09/29 08:39:19;;;;;;;0.70;0.57;;;8.30;99.90;;;;;;5031470;28;20071;-77
2022/09/29 08:41:49;;;;;;;1.25;0.52;;;8.40;99.90;;;;;;5015986;28;20211;-79
2022/09/29 08:44:47;;;;;;;0.98;0.90;;;8.60;99.90;;;;;;5044789;28;20053;-78
2022/09/29 08:47:38;;;;;;;1.52;1.42;;;8.70;99.90;;;;;;5109551;22;20108;-84
2022/09/29 08:50:25;;;;;;;1.30;1.15;;;8.80;99.90;;;;;;5107871;28;20059;-85
2022/09/29 08:52:55;;;;;;;0.85;0.63;;;8.90;99.90;;;;;;5117509;28;20122;-88
2022/09/29 08:55:33;;;;;;;0.25;0.25;;;9.90;99.90;;;;;;5105197;28;20048;-84
2022/09/29 08:58:00;;;;;;;2.00;1.17;;;9.20;99.90;;;;;;5097714;28;20040;-85
2022/09/29 09:00:52;;;;;;;2.00;1.42;;;10.20;99.90;;;;;;5062694;28;20055;-86
2022/09/29 09:03:37;;;;;;;0.57;0.38;;;9.50;99.90;;;;;;5099698;28;20052;-85
2022/09/29 09:06:20;;;;;;;1.23;0.70;;;9.60;99.90;;;;;;5100831;28;20047;-86
2022/09/29 09:08:54;;;;;;;3.10;1.13;;;9.70;99.90;;;;;;5080538;28;20509;-85
2022/09/29 09:11:23;;;;;;;4.93;1.55;;;9.80;99.90;;;;;;5100968;28;20676;-85
2022/09/29 09:14:09;;;;;;;1.08;0.98;;;10.00;99.90;;;;;;5098516;28;20055;-85
2022/09/29 09:16:47;;;;;;;2.65;0.85;;;10.10;99.90;;;;;;5080810;28;20096;-85
2022/09/29 09:19:37;;;;;;;0.47;0.47;;;10.40;99.90;;;;;;5098676;28;20081;-86
2022/09/29 09:22:21;;;;;;;1.63;1.38;;;10.70;99.90;;;;;;5080556;28;20044;-86
2022/09/29 09:24:58;;;;;;;0.90;0.85;;;11.20;99.90;;;;;;5104092;28;20490;-87
2022/09/29 09:27:33;;;;;;;0.88;0.88;;;11.30;99.90;;;;;;5102223;28;20080;-85
2022/09/29 09:30:06;;;;;;;1.92;1.45;;;11.50;99.90;;;;;;5082997;28;20052;-87
2022/09/29 09:32:38;;;;;;;1.67;1.10;;;11.60;99.90;;;;;;5099979;28;20043;-86
2022/09/29 09:35:16;;;;;;;0.38;0.38;;;12.60;99.90;;;;;;5111824;28;20199;-87
2022/09/29 09:37:44;;;;;;;0.57;0.35;;;11.80;99.90;;;;;;5122955;28;20047;-86
2022/09/29 09:40:10;;;;;;;0.85;0.75;;;11.70;99.90;;;;;;5118856;27;20119;-85
2022/09/29 09:42:41;;;;;;;0.47;0.47;;;12.00;99.90;;;;;;5145852;27;20070;-86
2022/09/29 09:45:07;;;;;;;0.38;0.28;;;12.00;99.90;;;;;;5125055;27;20069;-87
2022/09/29 09:47:49;;;;;;;0.20;0.20;;;12.10;99.90;;;;;;5123586;28;20107;-87
2022/09/29 09:50:18;;;;;;;0.52;0.40;;;12.40;99.90;;;;;;5137779;27;20049;-86
2022/09/29 09:53:15;;;;;;;0.30;0.28;;;12.70;99.90;;;;;;5147922;27;20039;-88
2022/09/29 09:55:42;;;;;;;2.03;0.68;;;12.40;99.90;;;;;;5127668;27;20048;-88
2022/09/29 09:58:21;;;;;;;1.05;0.70;;;13.20;99.90;;;;;;5085723;28;20115;-88
2022/09/29 10:00:54;;;;;;;0.47;0.47;;;12.40;99.90;;;;;;5086761;28;20058;-86
2022/09/29 10:03:20;;;;;;;0.50;0.50;;;13.50;99.90;;;;;;5088029;28;20054;-87
2022/09/29 10:05:47;;;;;;;0.43;0.30;;;13.30;99.90;;;;;;5104277;28;20055;-87
2022/09/29 10:08:22;;;;;;;0.70;0.47;;;13.10;99.90;;;;;;5088576;28;20044;-86
2022/09/29 10:10:47;;;;;;;0.00;0.00;;;13.00;99.90;;;;;;5086896;28;20048;-87
2022/09/29 10:13:14;;;;;;;1.25;0.43;;;13.60;99.90;;;;;;5089053;28;20070;-87
2022/09/29 10:15:56;;;;;;;0.10;0.10;;;13.60;99.90;;;;;;5089618;28;20056;-85
2022/09/29 10:18:24;;;;;;;0.40;0.25;;;13.30;99.90;;;;;;5085933;28;20056;-86
2022/09/29 10:20:57;;;;;;;0.50;0.47;;;13.90;99.90;;;;;;5087800;28;20044;-88
2022/09/29 10:23:31;;;;;;;0.40;0.38;;;13.60;99.90;;;;;;5107306;28;20510;-85
2022/09/29 10:26:11;;;;;;;0.35;0.25;;;13.50;99.90;;;;;;5084817;28;20119;-87
2022/09/29 10:29:24;;;;;;;0.32;0.20;;;13.60;99.90;;;;;;5103548;28;20083;-86
2022/09/29 10:32:08;;;;;;;0.10;0.08;;;13.90;99.90;;;;;;5021596;28;20034;-86
2022/09/29 10:34:37;;;;;;;0.43;0.30;;;14.80;99.90;;;;;;5101558;28;20068;-87
2022/09/29 10:37:19;;;;;;;0.00;0.00;;;13.80;99.90;;;;;;5103701;28;20051;-87
2022/09/29 10:39:49;;;;;;;0.30;0.30;;;13.90;99.90;;;;;;5105060;28;20044;-87
2022/09/29 10:42:24;;;;;;;0.00;0.00;;;13.90;99.90;;;;;;5085217;28;20051;-86
2022/09/29 10:45:00;;;;;;;0.20;0.15;;;13.90;7.50;;;;;;5086661;28;20047;-85
2022/09/29 10:47:26;;;;;;;0.28;0.20;;;14.60;99.90;;;;;;5104855;28;20052;-87
2022/09/29 10:50:15;;;;;;;0.00;0.00;;;15.10;99.90;;;;;;5102190;28;20074;-86
2022/09/29 10:52:53;;;;;;;0.20;0.10;;;14.70;99.90;;;;;;5101200;28;20087;-85
2022/09/29 10:55:25;;;;;;;0.00;0.00;;;14.60;82.80;;;;;;5082857;28;20043;-86
2022/09/29 10:57:53;;;;;;;0.00;0.00;;;14.60;99.90;;;;;;5101185;28;20044;-86
2022/09/29 11:00:37;;;;;;;1.08;0.57;;;15.70;1.00;;;;;;5080694;28;20481;-87
2022/09/29 11:03:22;;;;;;;0.00;0.00;;;15.80;99.90;;;;;;5081455;28;20130;-85
2022/09/29 11:05:58;;;;;;;0.30;0.10;;;15.90;99.90;;;;;;5099563;28;20051;-86
2022/09/29 11:08:27;;;;;;;0.00;0.00;;;14.90;99.90;;;;;;5081291;28;20494;-87
2022/09/29 11:11:01;;;;;;;0.00;0.00;;;15.70;99.90;;;;;;5099449;28;20047;-85
2022/09/29 11:13:30;;;;;;;0.00;0.00;;;15.60;1.00;;;;;;5081526;28;20058;-86
2022/09/29 11:16:04;;;;;;;0.73;0.10;;;15.10;99.90;;;;;;5084257;28;20056;-88
2022/09/29 11:18:37;;;;;;;0.00;0.00;;;15.40;1.00;;;;;;5083516;28;20044;-86
2022/09/29 11:21:23;;;;;;;1.88;0.63;;;15.70;99.90;;;;;;5100700;28;20052;-86
2022/09/29 11:24:07;;;;;;;0.15;0.05;;;16.10;6.00;;;;;;5098862;28;20044;-87
2022/09/29 11:26:58;;;;;;;0.10;0.10;;;16.20;99.90;;;;;;5088430;28;20108;-86
2022/09/29 11:29:33;;;;;;;0.00;0.00;;;16.60;99.90;;;;;;5104172;28;20082;-84
2022/09/29 11:32:13;;;;;;;0.17;0.10;;;17.10;1.00;;;;;;5102584;28;20051;-86
2022/09/29 11:35:04;;;;;;;0.60;0.15;;;17.50;99.90;;;;;;5097185;28;20193;-85
2022/09/29 11:38:04;;;;;;;0.00;0.00;;;17.90;99.90;;;;;;5076511;28;20391;-85
2022/09/29 11:40:36;;;;;;;0.17;0.08;;;18.00;99.90;;;;;;5095872;28;20047;-84
2022/09/29 11:43:30;;;;;;;0.30;0.30;;;18.10;99.90;;;;;;5098536;28;20040;-86
2022/09/29 11:45:56;;;;;;;0.20;0.20;;;17.80;99.90;;;;;;5098995;28;20044;-85
2022/09/29 11:48:47;;;;;;;0.28;0.20;;;18.80;99.90;;;;;;5098601;28;20455;-86
2022/09/29 11:51:47;;;;;;;0.00;0.00;;;17.70;99.90;;;;;;5081286;28;20048;-85
2022/09/29 11:54:37;;;;;;;0.00;0.00;;;17.90;99.90;;;;;;5059117;28;20083;-85
2022/09/29 11:57:28;;;;;;;0.30;0.10;;;17.40;99.90;;;;;;5081631;28;20044;-85
2022/09/29 12:00:11;;;;;;;0.15;0.10;;;17.30;99.90;;;;;;5097502;28;20048;-85
2022/09/29 12:03:10;;;;;;;0.00;0.00;;;17.60;1.00;;;;;;5100264;28;20115;-86
2022/09/29 12:06:10;;;;;;;0.00;0.00;;;18.00;1.00;;;;;;5099765;28;20056;-86
2022/09/29 12:08:59;;;;;;;0.10;0.10;;;18.30;1.00;;;;;;5099765;28;20048;-86
2022/09/29 12:11:54;;;;;;;0.13;0.10;;;18.70;1.00;;;;;;5101233;28;20054;-85
2022/09/29 12:14:42;;;;;;;0.00;0.00;;;18.90;1.00;;;;;;5097828;28;20054;-86
2022/09/29 12:17:17;;;;;;;0.00;0.00;;;18.90;1.00;;;;;;5098570;28;20559;-86
2022/09/29 12:19:46;;;;;;;0.00;0.00;;;20.00;53.80;;;;;;5099778;28;20090;-85
2022/09/29 12:22:18;;;;;;;0.20;0.10;;;19.20;99.90;;;;;;5081064;28;20066;-86
2022/09/29 12:24:54;;;;;;;0.00;0.00;;;19.50;99.90;;;;;;5081791;28;20105;-88
2022/09/29 12:27:29;;;;;;;0.00;0.00;;;19.60;1.00;;;;;;5099282;28;20051;-85
2022/09/29 12:30:03;;;;;;;;;;;19.80;99.90;;;;;;5100128;28;20104;-85
2022/09/29 12:32:37;;;;;;;0.00;0.00;;;20.10;99.90;;;;;;5081762;28;19969;-88
2022/09/29 12:35:16;;;;;;;0.17;0.08;;;20.60;99.90;;;;;;5102582;28;20112;-87
2022/09/29 12:38:14;;;;;;;0.00;0.00;;;20.60;1.00;;;;;;5102434;28;20040;-87
2022/09/29 12:41:15;;;;;;;0.47;0.43;;;20.30;1.00;;;;;;5101084;28;20056;-88
2022/09/29 12:43:47;;;;;;;0.00;0.00;;;20.20;47.60;;;;;;5090721;28;20040;-87
2022/09/29 12:46:38;;;;;;;0.00;0.00;;;19.90;99.90;;;;;;5085095;28;20072;-86
2022/09/29 12:49:10;;;;;;;0.00;0.00;;;19.60;99.90;;;;;;5100457;28;20087;-86
2022/09/29 12:51:44;;;;;;;0.00;0.00;;;19.20;99.90;;;;;;5100454;28;20048;-85
2022/09/29 12:54:13;;;;;;;0.00;0.00;;;18.50;1.00;;;;;;5099612;28;20047;-86
2022/09/29 12:56:45;;;;;;;0.47;0.30;;;18.20;1.00;;;;;;5100330;28;20040;-85
2022/09/29 12:59:33;;;;;;;0.25;0.10;;;18.90;11.40;;;;;;5084802;28;20048;-87
2022/09/29 13:02:02;;;;;;;0.00;0.00;;;17.70;99.90;;;;;;5102068;28;20050;-85
2022/09/29 13:04:49;;;;;;;0.10;0.10;;;17.50;99.90;;;;;;5065711;28;20565;-88
2022/09/29 13:07:52;;;;;;;0.00;0.00;;;17.40;1.00;;;;;;5102111;28;20048;-86
2022/09/29 13:10:37;;;;;;;0.00;0.00;;;17.40;99.90;;;;;;5101199;28;20054;-87
2022/09/29 13:13:21;;;;;;;0.00;0.00;;;17.50;38.70;;;;;;5067291;28;20086;-87
2022/09/29 13:16:07;;;;;;;0.00;0.00;;;17.70;99.90;;;;;;5101556;28;20048;-87
2022/09/29 13:18:51;;;;;;;0.00;0.00;;;17.60;91.40;;;;;;5082678;28;20059;-87
2022/09/29 13:21:26;;;;;;;0.00;0.00;;;17.20;1.00;;;;;;5101912;28;20074;-85
2022/09/29 13:24:33;;;;;;;0.00;0.00;;;16.50;99.90;;;;;;5081557;28;20078;-86
2022/09/29 13:27:06;;;;;;;;;;;17.10;1.00;;;;;;5047618;28;20310;-85